sensor_id;sensor_type;location;lat;lon;timestamp;pressure;altitude;pressure_sealevel;temperature;humidity
63306;BME280;50735;52.060;1.248;2023-03-25T00:00:38;99561.57;;;5.63;61.21
63306;BME280;50735;52.060;1.248;2023-03-25T00:03:10;99560.78;;;5.63;61.03
63306;BME280;50735;52.060;1.248;2023-03-25T00:05:42;99559.38;;;5.65;61.01
63306;BME280;50735;52.060;1.248;2023-03-25T00:08:14;99558.50;;;5.85;60.70
63306;BME280;50735;52.060;1.248;2023-03-25T00:10:51;99559.08;;;5.68;60.90
63306;BME280;50735;52.060;1.248;2023-03-25T00:13:23;99562.17;;;5.71;60.50
63306;BME280;50735;52.060;1.248;2023-03-25T00:15:55;99559.26;;;5.79;60.36
63306;BME280;50735;52.060;1.248;2023-03-25T00:18:29;99561.42;;;5.78;59.97
63306;BME280;50735;52.060;1.248;2023-03-25T00:21:03;99575.16;;;5.72;60.83
63306;BME280;50735;52.060;1.248;2023-03-25T00:23:36;99566.30;;;5.40;60.39
63306;BME280;50735;52.060;1.248;2023-03-25T00:26:08;99575.42;;;5.30;60.97
63306;BME280;50735;52.060;1.248;2023-03-25T00:28:40;99567.72;;;5.41;60.81
63306;BME280;50735;52.060;1.248;2023-03-25T00:31:13;99571.60;;;5.66;60.06
63306;BME280;50735;52.060;1.248;2023-03-25T00:33:45;99573.33;;;5.53;60.31
63306;BME280;50735;52.060;1.248;2023-03-25T00:36:17;99571.31;;;5.87;59.85
63306;BME280;50735;52.060;1.248;2023-03-25T00:38:48;99567.76;;;5.59;59.77
63306;BME280;50735;52.060;1.248;2023-03-25T00:41:22;99564.17;;;5.53;59.48
63306;BME280;50735;52.060;1.248;2023-03-25T00:43:56;99567.84;;;5.79;58.88
63306;BME280;50735;52.060;1.248;2023-03-25T00:46:29;99575.27;;;5.81;58.65
63306;BME280;50735;52.060;1.248;2023-03-25T00:49:02;99571.20;;;5.71;58.25
63306;BME280;50735;52.060;1.248;2023-03-25T00:51:34;99579.40;;;5.77;58.32
63306;BME280;50735;52.060;1.248;2023-03-25T00:54:06;99573.88;;;5.81;58.11
63306;BME280;50735;52.060;1.248;2023-03-25T00:56:38;99570.83;;;6.12;58.26
63306;BME280;50735;52.060;1.248;2023-03-25T00:59:09;99568.29;;;5.96;57.65
63306;BME280;50735;52.060;1.248;2023-03-25T01:01:41;99563.11;;;5.85;57.41
63306;BME280;50735;52.060;1.248;2023-03-25T01:04:13;99556.97;;;5.64;57.51
63306;BME280;50735;52.060;1.248;2023-03-25T01:06:45;99570.06;;;5.43;57.64
63306;BME280;50735;52.060;1.248;2023-03-25T01:09:18;99571.43;;;5.40;57.68
63306;BME280;50735;52.060;1.248;2023-03-25T01:11:50;99569.75;;;5.51;57.89
63306;BME280;50735;52.060;1.248;2023-03-25T01:14:22;99556.30;;;5.62;57.20
63306;BME280;50735;52.060;1.248;2023-03-25T01:16:57;99554.32;;;5.73;57.10
63306;BME280;50735;52.060;1.248;2023-03-25T01:19:28;99561.14;;;5.50;56.92
63306;BME280;50735;52.060;1.248;2023-03-25T01:22:00;99561.42;;;5.55;57.31
63306;BME280;50735;52.060;1.248;2023-03-25T01:24:32;99552.25;;;5.32;56.85
63306;BME280;50735;52.060;1.248;2023-03-25T01:27:04;99548.27;;;5.43;57.24
63306;BME280;50735;52.060;1.248;2023-03-25T01:29:35;99534.10;;;5.46;56.86
63306;BME280;50735;52.060;1.248;2023-03-25T01:32:07;99540.43;;;5.42;57.15
63306;BME280;50735;52.060;1.248;2023-03-25T01:34:39;99544.25;;;5.24;56.62
63306;BME280;50735;52.060;1.248;2023-03-25T01:37:11;99546.12;;;5.11;57.19
63306;BME280;50735;52.060;1.248;2023-03-25T01:39:43;99535.18;;;5.16;57.13
63306;BME280;50735;52.060;1.248;2023-03-25T01:42:15;99527.91;;;5.41;56.85
63306;BME280;50735;52.060;1.248;2023-03-25T01:45:23;99528.07;;;5.08;57.35
63306;BME280;50735;52.060;1.248;2023-03-25T01:48:02;99525.76;;;4.91;57.41
63306;BME280;50735;52.060;1.248;2023-03-25T01:50:37;99524.62;;;4.80;57.35
63306;BME280;50735;52.060;1.248;2023-03-25T01:53:12;99528.48;;;5.27;56.92
63306;BME280;50735;52.060;1.248;2023-03-25T01:55:43;99532.42;;;4.92;57.00
63306;BME280;50735;52.060;1.248;2023-03-25T01:58:17;99533.80;;;4.78;57.15
63306;BME280;50735;52.060;1.248;2023-03-25T02:00:50;99534.32;;;4.83;57.01
63306;BME280;50735;52.060;1.248;2023-03-25T02:03:23;99536.01;;;4.93;56.79
63306;BME280;50735;52.060;1.248;2023-03-25T02:05:59;99530.59;;;5.06;56.63
63306;BME280;50735;52.060;1.248;2023-03-25T02:08:36;99530.63;;;4.86;56.62
63306;BME280;50735;52.060;1.248;2023-03-25T02:11:09;99519.11;;;4.87;56.55
63306;BME280;50735;52.060;1.248;2023-03-25T02:13:42;99528.47;;;4.81;56.70
63306;BME280;50735;52.060;1.248;2023-03-25T02:16:22;99520.89;;;5.17;55.85
63306;BME280;50735;52.060;1.248;2023-03-25T02:19:14;99531.91;;;4.64;56.40
63306;BME280;50735;52.060;1.248;2023-03-25T02:22:21;99533.42;;;5.07;56.05
63306;BME280;50735;52.060;1.248;2023-03-25T02:25:09;99525.12;;;4.81;56.37
63306;BME280;50735;52.060;1.248;2023-03-25T02:27:52;99527.00;;;4.87;56.44
63306;BME280;50735;52.060;1.248;2023-03-25T02:30:46;99532.36;;;4.84;57.20
63306;BME280;50735;52.060;1.248;2023-03-25T02:33:36;99536.40;;;5.13;56.74
63306;BME280;50735;52.060;1.248;2023-03-25T02:36:59;99530.69;;;4.88;57.08
63306;BME280;50735;52.060;1.248;2023-03-25T02:39:38;99540.33;;;4.85;57.52
63306;BME280;50735;52.060;1.248;2023-03-25T02:42:15;99537.32;;;5.01;57.76
63306;BME280;50735;52.060;1.248;2023-03-25T02:44:55;99541.22;;;4.80;58.03
63306;BME280;50735;52.060;1.248;2023-03-25T02:47:33;99544.09;;;5.06;57.78
63306;BME280;50735;52.060;1.248;2023-03-25T02:50:09;99540.10;;;5.23;58.17
63306;BME280;50735;52.060;1.248;2023-03-25T02:52:46;99541.24;;;5.34;57.43
63306;BME280;50735;52.060;1.248;2023-03-25T02:55:22;99540.78;;;5.11;58.62
63306;BME280;50735;52.060;1.248;2023-03-25T02:57:56;99534.97;;;5.10;58.85
63306;BME280;50735;52.060;1.248;2023-03-25T03:00:28;99540.37;;;5.05;58.97
63306;BME280;50735;52.060;1.248;2023-03-25T03:03:03;99539.83;;;4.90;59.53
63306;BME280;50735;52.060;1.248;2023-03-25T03:05:37;99540.89;;;4.91;59.52
63306;BME280;50735;52.060;1.248;2023-03-25T03:08:21;99528.30;;;5.08;59.12
63306;BME280;50735;52.060;1.248;2023-03-25T03:11:01;99537.06;;;5.32;58.68
63306;BME280;50735;52.060;1.248;2023-03-25T03:13:54;99520.02;;;5.33;58.45
63306;BME280;50735;52.060;1.248;2023-03-25T03:16:32;99517.37;;;5.28;58.60
63306;BME280;50735;52.060;1.248;2023-03-25T03:19:20;99522.10;;;5.32;58.34
63306;BME280;50735;52.060;1.248;2023-03-25T03:21:59;99526.11;;;5.19;58.47
63306;BME280;50735;52.060;1.248;2023-03-25T03:24:34;99525.93;;;4.90;59.12
63306;BME280;50735;52.060;1.248;2023-03-25T03:27:12;99520.28;;;4.80;59.30
63306;BME280;50735;52.060;1.248;2023-03-25T03:29:49;99526.78;;;5.00;58.80
63306;BME280;50735;52.060;1.248;2023-03-25T03:32:28;99526.00;;;4.88;58.53
63306;BME280;50735;52.060;1.248;2023-03-25T03:35:06;99527.87;;;5.11;58.68
63306;BME280;50735;52.060;1.248;2023-03-25T03:37:43;99525.39;;;4.83;59.18
63306;BME280;50735;52.060;1.248;2023-03-25T03:40:19;99532.50;;;4.79;59.32
63306;BME280;50735;52.060;1.248;2023-03-25T03:42:56;99532.59;;;4.66;59.49
63306;BME280;50735;52.060;1.248;2023-03-25T03:45:32;99537.24;;;4.69;59.45
63306;BME280;50735;52.060;1.248;2023-03-25T03:48:09;99532.15;;;4.51;59.75
63306;BME280;50735;52.060;1.248;2023-03-25T03:50:46;99531.22;;;4.55;59.29
63306;BME280;50735;52.060;1.248;2023-03-25T03:53:24;99536.26;;;4.59;59.03
63306;BME280;50735;52.060;1.248;2023-03-25T03:56:00;99532.36;;;4.91;58.83
63306;BME280;50735;52.060;1.248;2023-03-25T03:58:38;99536.73;;;4.81;58.38
63306;BME280;50735;52.060;1.248;2023-03-25T04:01:12;99543.48;;;5.03;58.80
63306;BME280;50735;52.060;1.248;2023-03-25T04:03:49;99545.75;;;4.97;58.79
63306;BME280;50735;52.060;1.248;2023-03-25T04:06:26;99547.24;;;4.72;59.12
63306;BME280;50735;52.060;1.248;2023-03-25T04:09:02;99556.52;;;4.66;59.19
63306;BME280;50735;52.060;1.248;2023-03-25T04:11:39;99553.27;;;4.68;59.07
63306;BME280;50735;52.060;1.248;2023-03-25T04:14:14;99554.17;;;4.46;59.57
63306;BME280;50735;52.060;1.248;2023-03-25T04:16:46;99547.78;;;4.48;59.37
63306;BME280;50735;52.060;1.248;2023-03-25T04:19:18;99545.70;;;4.63;59.39
63306;BME280;50735;52.060;1.248;2023-03-25T04:21:50;99546.54;;;4.62;59.16
63306;BME280;50735;52.060;1.248;2023-03-25T04:24:22;99545.91;;;4.76;59.21
63306;BME280;50735;52.060;1.248;2023-03-25T04:26:54;99556.20;;;4.60;59.06
63306;BME280;50735;52.060;1.248;2023-03-25T04:29:25;99560.13;;;4.75;58.65
63306;BME280;50735;52.060;1.248;2023-03-25T04:31:57;99555.42;;;4.92;58.12
63306;BME280;50735;52.060;1.248;2023-03-25T04:34:30;99554.25;;;4.88;58.19
63306;BME280;50735;52.060;1.248;2023-03-25T04:37:02;99560.23;;;4.69;58.63
63306;BME280;50735;52.060;1.248;2023-03-25T04:39:34;99571.23;;;4.72;58.99
63306;BME280;50735;52.060;1.248;2023-03-25T04:42:05;99569.76;;;4.53;59.24
63306;BME280;50735;52.060;1.248;2023-03-25T04:44:37;99564.97;;;4.65;58.89
63306;BME280;50735;52.060;1.248;2023-03-25T04:47:11;99571.13;;;4.69;58.70
63306;BME280;50735;52.060;1.248;2023-03-25T04:49:44;99569.43;;;4.51;59.25
63306;BME280;50735;52.060;1.248;2023-03-25T04:52:16;99573.40;;;4.64;59.08
63306;BME280;50735;52.060;1.248;2023-03-25T04:54:47;99577.76;;;4.91;58.25
63306;BME280;50735;52.060;1.248;2023-03-25T04:57:19;99577.11;;;4.95;58.30
63306;BME280;50735;52.060;1.248;2023-03-25T04:59:51;99581.57;;;4.99;58.04
63306;BME280;50735;52.060;1.248;2023-03-25T05:02:23;99575.63;;;4.94;58.32
63306;BME280;50735;52.060;1.248;2023-03-25T05:04:55;99583.04;;;4.74;58.85
63306;BME280;50735;52.060;1.248;2023-03-25T05:07:27;99584.36;;;4.61;58.69
63306;BME280;50735;52.060;1.248;2023-03-25T05:09:58;99589.90;;;5.07;58.23
63306;BME280;50735;52.060;1.248;2023-03-25T05:12:30;99597.98;;;4.60;59.36
63306;BME280;50735;52.060;1.248;2023-03-25T05:15:03;99599.74;;;4.92;58.70
63306;BME280;50735;52.060;1.248;2023-03-25T05:17:35;99603.93;;;4.92;58.61
63306;BME280;50735;52.060;1.248;2023-03-25T05:20:07;99617.22;;;5.30;58.24
63306;BME280;50735;52.060;1.248;2023-03-25T05:22:39;99616.60;;;5.18;59.13
63306;BME280;50735;52.060;1.248;2023-03-25T05:25:11;99613.07;;;4.72;58.74
63306;BME280;50735;52.060;1.248;2023-03-25T05:27:43;99613.63;;;5.23;58.20
63306;BME280;50735;52.060;1.248;2023-03-25T05:30:15;99619.93;;;5.22;58.33
63306;BME280;50735;52.060;1.248;2023-03-25T05:32:47;99623.03;;;5.44;58.00
63306;BME280;50735;52.060;1.248;2023-03-25T05:35:19;99624.64;;;4.93;59.07
63306;BME280;50735;52.060;1.248;2023-03-25T05:37:51;99627.79;;;4.62;59.54
63306;BME280;50735;52.060;1.248;2023-03-25T05:40:22;99630.55;;;4.75;59.97
63306;BME280;50735;52.060;1.248;2023-03-25T05:42:54;99633.22;;;4.91;59.51
63306;BME280;50735;52.060;1.248;2023-03-25T05:45:26;99632.36;;;5.21;59.06
63306;BME280;50735;52.060;1.248;2023-03-25T05:47:58;99633.88;;;4.88;59.32
63306;BME280;50735;52.060;1.248;2023-03-25T05:50:30;99639.32;;;5.26;58.90
63306;BME280;50735;52.060;1.248;2023-03-25T05:53:02;99635.76;;;5.12;59.22
63306;BME280;50735;52.060;1.248;2023-03-25T05:55:34;99644.34;;;4.80;59.57
63306;BME280;50735;52.060;1.248;2023-03-25T05:58:06;99639.25;;;5.30;59.50
63306;BME280;50735;52.060;1.248;2023-03-25T06:00:37;99646.88;;;4.88;59.47
63306;BME280;50735;52.060;1.248;2023-03-25T06:03:09;99646.38;;;5.09;59.52
63306;BME280;50735;52.060;1.248;2023-03-25T06:05:41;99649.33;;;4.85;59.67
63306;BME280;50735;52.060;1.248;2023-03-25T06:08:13;99646.10;;;5.23;59.33
63306;BME280;50735;52.060;1.248;2023-03-25T06:10:45;99648.53;;;5.04;59.90
63306;BME280;50735;52.060;1.248;2023-03-25T06:13:17;99646.21;;;5.23;59.32
63306;BME280;50735;52.060;1.248;2023-03-25T06:15:49;99649.74;;;5.37;59.14
63306;BME280;50735;52.060;1.248;2023-03-25T06:18:21;99652.18;;;5.30;59.41
63306;BME280;50735;52.060;1.248;2023-03-25T06:20:53;99655.68;;;5.69;58.50
63306;BME280;50735;52.060;1.248;2023-03-25T06:23:25;99671.02;;;5.36;58.86
63306;BME280;50735;52.060;1.248;2023-03-25T06:25:57;99667.09;;;5.30;59.10
63306;BME280;50735;52.060;1.248;2023-03-25T06:28:29;99665.71;;;5.55;58.79
63306;BME280;50735;52.060;1.248;2023-03-25T06:31:00;99669.49;;;5.37;59.30
63306;BME280;50735;52.060;1.248;2023-03-25T06:33:32;99672.41;;;5.45;58.65
63306;BME280;50735;52.060;1.248;2023-03-25T06:36:05;99670.88;;;5.45;58.77
63306;BME280;50735;52.060;1.248;2023-03-25T06:38:38;99674.87;;;5.40;58.67
63306;BME280;50735;52.060;1.248;2023-03-25T06:41:10;99670.11;;;5.62;58.72
63306;BME280;50735;52.060;1.248;2023-03-25T06:43:42;99667.13;;;5.82;58.19
63306;BME280;50735;52.060;1.248;2023-03-25T06:46:14;99671.77;;;5.96;58.07
63306;BME280;50735;52.060;1.248;2023-03-25T06:48:46;99677.65;;;5.54;59.14
63306;BME280;50735;52.060;1.248;2023-03-25T06:51:17;99681.81;;;5.67;58.97
63306;BME280;50735;52.060;1.248;2023-03-25T06:53:49;99687.02;;;5.56;59.25
63306;BME280;50735;52.060;1.248;2023-03-25T06:56:21;99686.97;;;5.70;58.71
63306;BME280;50735;52.060;1.248;2023-03-25T06:58:52;99692.70;;;5.82;58.87
63306;BME280;50735;52.060;1.248;2023-03-25T07:01:24;99704.83;;;5.45;59.73
63306;BME280;50735;52.060;1.248;2023-03-25T07:03:56;99699.74;;;5.62;59.56
63306;BME280;50735;52.060;1.248;2023-03-25T07:06:28;99698.44;;;5.63;59.72
63306;BME280;50735;52.060;1.248;2023-03-25T07:09:02;99702.88;;;5.37;60.27
63306;BME280;50735;52.060;1.248;2023-03-25T07:11:34;99713.96;;;5.58;60.23
63306;BME280;50735;52.060;1.248;2023-03-25T07:14:06;99710.52;;;5.75;59.41
63306;BME280;50735;52.060;1.248;2023-03-25T07:16:38;99724.13;;;5.67;60.12
63306;BME280;50735;52.060;1.248;2023-03-25T07:19:10;99716.79;;;5.67;59.82
63306;BME280;50735;52.060;1.248;2023-03-25T07:21:41;99727.56;;;5.64;59.83
63306;BME280;50735;52.060;1.248;2023-03-25T07:24:13;99726.48;;;5.35;60.30
63306;BME280;50735;52.060;1.248;2023-03-25T07:26:45;99723.79;;;5.40;60.66
63306;BME280;50735;52.060;1.248;2023-03-25T07:29:16;99723.82;;;5.92;59.53
63306;BME280;50735;52.060;1.248;2023-03-25T07:31:48;99725.14;;;5.72;59.52
63306;BME280;50735;52.060;1.248;2023-03-25T07:34:20;99722.17;;;5.51;59.94
63306;BME280;50735;52.060;1.248;2023-03-25T07:36:52;99737.27;;;5.75;59.76
63306;BME280;50735;52.060;1.248;2023-03-25T07:39:24;99729.50;;;5.86;59.52
63306;BME280;50735;52.060;1.248;2023-03-25T07:41:56;99728.34;;;5.69;59.38
63306;BME280;50735;52.060;1.248;2023-03-25T07:44:28;99725.77;;;5.97;58.87
63306;BME280;50735;52.060;1.248;2023-03-25T07:46:59;99727.49;;;5.71;59.32
63306;BME280;50735;52.060;1.248;2023-03-25T07:49:31;99727.66;;;5.90;58.63
63306;BME280;50735;52.060;1.248;2023-03-25T07:52:03;99737.21;;;6.07;58.22
63306;BME280;50735;52.060;1.248;2023-03-25T07:54:34;99730.20;;;6.47;58.02
63306;BME280;50735;52.060;1.248;2023-03-25T07:57:06;99733.88;;;6.64;57.69
63306;BME280;50735;52.060;1.248;2023-03-25T07:59:38;99738.11;;;6.47;58.81
63306;BME280;50735;52.060;1.248;2023-03-25T08:02:12;99744.42;;;6.11;59.67
63306;BME280;50735;52.060;1.248;2023-03-25T08:04:43;99741.32;;;6.20;59.83
63306;BME280;50735;52.060;1.248;2023-03-25T08:07:15;99750.92;;;6.29;59.42
63306;BME280;50735;52.060;1.248;2023-03-25T08:09:47;99746.18;;;6.33;59.20
63306;BME280;50735;52.060;1.248;2023-03-25T08:12:19;99759.62;;;6.49;58.59
63306;BME280;50735;52.060;1.248;2023-03-25T08:14:51;99754.07;;;6.56;58.49
63306;BME280;50735;52.060;1.248;2023-03-25T08:17:22;99756.29;;;6.76;57.81
63306;BME280;50735;52.060;1.248;2023-03-25T08:19:54;99756.40;;;6.59;58.12
63306;BME280;50735;52.060;1.248;2023-03-25T08:22:26;99767.68;;;6.36;58.31
63306;BME280;50735;52.060;1.248;2023-03-25T08:24:58;99766.48;;;6.54;58.53
63306;BME280;50735;52.060;1.248;2023-03-25T08:27:30;99754.58;;;6.33;58.68
63306;BME280;50735;52.060;1.248;2023-03-25T08:30:03;99774.21;;;6.45;58.25
63306;BME280;50735;52.060;1.248;2023-03-25T08:32:35;99765.78;;;6.85;57.71
63306;BME280;50735;52.060;1.248;2023-03-25T08:35:08;99767.62;;;6.30;58.19
63306;BME280;50735;52.060;1.248;2023-03-25T08:37:40;99779.54;;;6.42;58.77
63306;BME280;50735;52.060;1.248;2023-03-25T08:40:11;99785.88;;;6.17;58.69
63306;BME280;50735;52.060;1.248;2023-03-25T08:42:43;99783.38;;;6.28;60.07
63306;BME280;50735;52.060;1.248;2023-03-25T08:45:15;99787.82;;;6.29;59.95
63306;BME280;50735;52.060;1.248;2023-03-25T08:47:48;99788.80;;;6.55;59.32
63306;BME280;50735;52.060;1.248;2023-03-25T08:50:20;99788.80;;;6.47;60.29
63306;BME280;50735;52.060;1.248;2023-03-25T08:52:52;99805.07;;;6.46;61.34
63306;BME280;50735;52.060;1.248;2023-03-25T08:55:25;99802.75;;;6.42;61.14
63306;BME280;50735;52.060;1.248;2023-03-25T08:58:00;99801.02;;;6.45;60.57
63306;BME280;50735;52.060;1.248;2023-03-25T09:00:33;99802.37;;;6.46;61.76
63306;BME280;50735;52.060;1.248;2023-03-25T09:03:05;99804.82;;;6.49;61.38
63306;BME280;50735;52.060;1.248;2023-03-25T09:05:37;99804.27;;;6.31;61.40
63306;BME280;50735;52.060;1.248;2023-03-25T09:08:09;99804.48;;;6.29;61.04
63306;BME280;50735;52.060;1.248;2023-03-25T09:10:41;99803.93;;;7.35;61.24
63306;BME280;50735;52.060;1.248;2023-03-25T09:13:12;99810.48;;;7.22;58.40
63306;BME280;50735;52.060;1.248;2023-03-25T09:15:44;99809.92;;;7.20;58.17
63306;BME280;50735;52.060;1.248;2023-03-25T09:18:17;99806.87;;;7.30;58.07
63306;BME280;50735;52.060;1.248;2023-03-25T09:20:48;99819.92;;;7.23;57.97
63306;BME280;50735;52.060;1.248;2023-03-25T09:23:20;99816.17;;;7.50;57.38
63306;BME280;50735;52.060;1.248;2023-03-25T09:25:52;99816.85;;;7.34;57.31
63306;BME280;50735;52.060;1.248;2023-03-25T09:28:24;99823.68;;;7.56;56.90
63306;BME280;50735;52.060;1.248;2023-03-25T09:30:55;99827.18;;;7.78;56.28
63306;BME280;50735;52.060;1.248;2023-03-25T09:33:27;99825.24;;;7.95;55.98
63306;BME280;50735;52.060;1.248;2023-03-25T09:35:59;99831.33;;;7.85;55.15
63306;BME280;50735;52.060;1.248;2023-03-25T09:38:30;99821.70;;;7.95;54.67
63306;BME280;50735;52.060;1.248;2023-03-25T09:41:15;99829.42;;;8.67;53.65
63306;BME280;50735;52.060;1.248;2023-03-25T09:43:59;99835.25;;;9.16;51.73
63306;BME280;50735;52.060;1.248;2023-03-25T09:46:35;99842.00;;;9.26;49.76
63306;BME280;50735;52.060;1.248;2023-03-25T09:49:13;99845.31;;;9.09;49.76
63306;BME280;50735;52.060;1.248;2023-03-25T09:51:49;99860.57;;;8.78;49.18
63306;BME280;50735;52.060;1.248;2023-03-25T09:54:24;99850.03;;;8.40;50.01
63306;BME280;50735;52.060;1.248;2023-03-25T09:57:01;99858.68;;;8.47;49.27
63306;BME280;50735;52.060;1.248;2023-03-25T09:59:39;99867.52;;;8.48;49.29
63306;BME280;50735;52.060;1.248;2023-03-25T10:02:20;99872.12;;;8.70;48.71
63306;BME280;50735;52.060;1.248;2023-03-25T10:05:09;99883.42;;;8.66;47.74
63306;BME280;50735;52.060;1.248;2023-03-25T10:07:56;99883.00;;;8.88;48.00
63306;BME280;50735;52.060;1.248;2023-03-25T10:10:35;99884.85;;;8.55;46.93
63306;BME280;50735;52.060;1.248;2023-03-25T10:13:15;99888.44;;;8.74;47.37
63306;BME280;50735;52.060;1.248;2023-03-25T10:15:55;99892.12;;;8.86;46.90
63306;BME280;50735;52.060;1.248;2023-03-25T10:18:42;99891.27;;;8.47;47.04
63306;BME280;50735;52.060;1.248;2023-03-25T10:21:19;99907.44;;;8.31;48.15
63306;BME280;50735;52.060;1.248;2023-03-25T10:23:59;99919.04;;;8.33;48.22
63306;BME280;50735;52.060;1.248;2023-03-25T10:26:40;99917.30;;;8.39;48.20
63306;BME280;50735;52.060;1.248;2023-03-25T10:29:18;99906.98;;;8.12;48.65
63306;BME280;50735;52.060;1.248;2023-03-25T10:31:52;99920.36;;;8.10;48.72
63306;BME280;50735;52.060;1.248;2023-03-25T10:34:32;99916.32;;;8.33;48.53
63306;BME280;50735;52.060;1.248;2023-03-25T10:37:10;99919.88;;;8.75;47.85
63306;BME280;50735;52.060;1.248;2023-03-25T10:39:43;99929.60;;;8.40;47.62
63306;BME280;50735;52.060;1.248;2023-03-25T10:42:21;99935.32;;;8.65;47.92
63306;BME280;50735;52.060;1.248;2023-03-25T10:44:55;99936.65;;;8.59;47.59
63306;BME280;50735;52.060;1.248;2023-03-25T10:47:29;99939.89;;;8.34;47.94
63306;BME280;50735;52.060;1.248;2023-03-25T10:50:04;99938.02;;;8.17;48.55
63306;BME280;50735;52.060;1.248;2023-03-25T10:52:36;99936.05;;;8.17;48.31
63306;BME280;50735;52.060;1.248;2023-03-25T10:55:17;99948.75;;;8.41;48.22
63306;BME280;50735;52.060;1.248;2023-03-25T10:57:52;99954.04;;;9.44;46.48
63306;BME280;50735;52.060;1.248;2023-03-25T11:00:25;99954.23;;;8.89;46.21
63306;BME280;50735;52.060;1.248;2023-03-25T11:02:58;99967.46;;;9.41;46.08
63306;BME280;50735;52.060;1.248;2023-03-25T11:05:29;99980.05;;;8.77;46.57
63306;BME280;50735;52.060;1.248;2023-03-25T11:08:02;99984.28;;;9.28;46.95
63306;BME280;50735;52.060;1.248;2023-03-25T11:10:34;99979.53;;;9.63;45.83
63306;BME280;50735;52.060;1.248;2023-03-25T11:13:11;99979.90;;;10.18;45.46
63306;BME280;50735;52.060;1.248;2023-03-25T11:15:43;99989.50;;;10.48;44.81
63306;BME280;50735;52.060;1.248;2023-03-25T11:18:20;99981.73;;;10.36;44.72
63306;BME280;50735;52.060;1.248;2023-03-25T11:20:56;99998.37;;;11.33;42.70
63306;BME280;50735;52.060;1.248;2023-03-25T11:23:33;99987.24;;;10.86;42.59
63306;BME280;50735;52.060;1.248;2023-03-25T11:26:15;99990.03;;;11.04;42.29
63306;BME280;50735;52.060;1.248;2023-03-25T11:28:50;99995.07;;;10.29;42.09
63306;BME280;50735;52.060;1.248;2023-03-25T11:31:25;100006.55;;;10.39;44.38
63306;BME280;50735;52.060;1.248;2023-03-25T11:34:04;100004.75;;;10.20;42.58
63306;BME280;50735;52.060;1.248;2023-03-25T11:36:38;99997.99;;;9.96;42.61
63306;BME280;50735;52.060;1.248;2023-03-25T11:39:16;100014.02;;;10.08;43.12
63306;BME280;50735;52.060;1.248;2023-03-25T11:41:49;100016.18;;;10.39;43.26
63306;BME280;50735;52.060;1.248;2023-03-25T11:44:22;100018.97;;;10.48;42.91
63306;BME280;50735;52.060;1.248;2023-03-25T11:47:00;100031.88;;;10.77;42.28
63306;BME280;50735;52.060;1.248;2023-03-25T11:49:35;100035.72;;;10.54;42.30
63306;BME280;50735;52.060;1.248;2023-03-25T11:52:13;100037.50;;;10.51;42.45
63306;BME280;50735;52.060;1.248;2023-03-25T11:54:45;100030.92;;;10.37;42.47
63306;BME280;50735;52.060;1.248;2023-03-25T11:57:21;100056.37;;;10.54;43.31
63306;BME280;50735;52.060;1.248;2023-03-25T12:00:00;100049.47;;;10.26;42.44
63306;BME280;50735;52.060;1.248;2023-03-25T12:02:37;100038.53;;;10.67;42.47
63306;BME280;50735;52.060;1.248;2023-03-25T12:05:13;100043.23;;;10.18;42.90
63306;BME280;50735;52.060;1.248;2023-03-25T12:07:47;100044.78;;;11.01;42.29
63306;BME280;50735;52.060;1.248;2023-03-25T12:10:35;100051.46;;;10.72;42.14
63306;BME280;50735;52.060;1.248;2023-03-25T12:13:16;100058.02;;;10.67;42.54
63306;BME280;50735;52.060;1.248;2023-03-25T12:15:57;100063.91;;;10.08;42.52
63306;BME280;50735;52.060;1.248;2023-03-25T12:18:41;100046.19;;;10.35;42.84
63306;BME280;50735;52.060;1.248;2023-03-25T12:21:26;100045.69;;;10.17;43.10
63306;BME280;50735;52.060;1.248;2023-03-25T12:24:12;100044.00;;;10.59;42.12
63306;BME280;50735;52.060;1.248;2023-03-25T12:27:04;100047.94;;;10.20;41.43
63306;BME280;50735;52.060;1.248;2023-03-25T12:29:46;100059.04;;;10.40;41.85
63306;BME280;50735;52.060;1.248;2023-03-25T12:32:27;100048.31;;;10.39;41.15
63306;BME280;50735;52.060;1.248;2023-03-25T12:35:15;100060.03;;;10.78;40.59
63306;BME280;50735;52.060;1.248;2023-03-25T12:38:00;100065.06;;;11.01;40.24
63306;BME280;50735;52.060;1.248;2023-03-25T12:40:47;100061.23;;;11.48;40.60
63306;BME280;50735;52.060;1.248;2023-03-25T12:43:29;100059.99;;;10.69;40.03
63306;BME280;50735;52.060;1.248;2023-03-25T12:46:14;100053.58;;;10.40;39.89
63306;BME280;50735;52.060;1.248;2023-03-25T12:49:06;100049.60;;;11.28;39.05
63306;BME280;50735;52.060;1.248;2023-03-25T12:51:52;100047.35;;;11.90;38.89
63306;BME280;50735;52.060;1.248;2023-03-25T12:54:35;100038.99;;;12.56;38.45
63306;BME280;50735;52.060;1.248;2023-03-25T12:57:22;100045.80;;;12.59;37.81
63306;BME280;50735;52.060;1.248;2023-03-25T13:00:08;100040.99;;;12.26;36.81
63306;BME280;50735;52.060;1.248;2023-03-25T13:03:01;100057.10;;;12.77;36.36
63306;BME280;50735;52.060;1.248;2023-03-25T13:05:40;100055.91;;;12.28;36.11
63306;BME280;50735;52.060;1.248;2023-03-25T13:08:18;100054.86;;;12.76;35.61
63306;BME280;50735;52.060;1.248;2023-03-25T13:10:57;100070.05;;;12.20;35.64
63306;BME280;50735;52.060;1.248;2023-03-25T13:13:34;100069.71;;;12.33;35.30
63306;BME280;50735;52.060;1.248;2023-03-25T13:16:09;100069.44;;;12.12;35.27
63306;BME280;50735;52.060;1.248;2023-03-25T13:18:46;100077.09;;;12.22;35.50
63306;BME280;50735;52.060;1.248;2023-03-25T13:21:21;100079.89;;;11.53;35.59
63306;BME280;50735;52.060;1.248;2023-03-25T13:23:58;100076.16;;;12.15;35.88
63306;BME280;50735;52.060;1.248;2023-03-25T13:26:32;100075.53;;;11.88;35.62
63306;BME280;50735;52.060;1.248;2023-03-25T13:29:11;100086.86;;;12.15;35.36
63306;BME280;50735;52.060;1.248;2023-03-25T13:31:45;100084.00;;;12.37;34.51
63306;BME280;50735;52.060;1.248;2023-03-25T13:34:23;100108.06;;;11.96;35.11
63306;BME280;50735;52.060;1.248;2023-03-25T13:37:04;100093.06;;;11.67;36.15
63306;BME280;50735;52.060;1.248;2023-03-25T13:39:49;100094.49;;;11.69;35.95
63306;BME280;50735;52.060;1.248;2023-03-25T13:42:26;100091.55;;;11.56;35.89
63306;BME280;50735;52.060;1.248;2023-03-25T13:45:04;100101.66;;;11.48;36.27
63306;BME280;50735;52.060;1.248;2023-03-25T13:47:40;100111.97;;;11.67;36.33
63306;BME280;50735;52.060;1.248;2023-03-25T13:50:21;100094.97;;;11.86;36.76